Time;durP1;ratioP1;P1;durP2;ratioP2;P2;SDS_P1;SDS_P2;PMS_P1;PMS_P2;Temp;Humidity;BMP_temperature;BMP_pressure;BME280_temperature;BME280_humidity;BME280_pressure;Samples;Min_cycle;Max_cycle;Signal;HPM_P1;HPM_P2
2024/04/18 00:01:26;;;;;;;5.18;2.45;;;7.30;99.90;;;;;;5410686;26;20000;-82
2024/04/18 00:03:51;;;;;;;3.95;1.95;;;7.40;99.90;;;;;;5409561;26;20016;-80
2024/04/18 00:06:17;;;;;;;4.10;1.85;;;7.70;99.90;;;;;;5404265;26;20364;-78
2024/04/18 00:08:43;;;;;;;5.78;2.00;;;7.70;99.90;;;;;;5406032;26;20078;-80
2024/04/18 00:11:08;;;;;;;5.53;2.35;;;7.40;99.90;;;;;;5402360;26;19999;-79
2024/04/18 00:13:34;;;;;;;2.20;1.58;;;7.60;99.90;;;;;;5406502;26;19999;-80
2024/04/18 00:15:59;;;;;;;4.05;2.13;;;7.40;99.90;;;;;;5411904;26;20002;-81
2024/04/18 00:18:25;;;;;;;3.50;2.08;;;7.40;99.90;;;;;;5402539;26;20000;-81
2024/04/18 00:20:50;;;;;;;4.05;2.13;;;7.40;99.90;;;;;;5411768;26;19996;-79
2024/04/18 00:23:16;;;;;;;4.90;2.65;;;7.50;99.90;;;;;;5405074;26;20007;-78
2024/04/18 00:25:41;;;;;;;3.58;2.20;;;7.30;99.90;;;;;;5412254;26;20497;-80
2024/04/18 00:28:07;;;;;;;3.03;1.88;;;7.30;99.90;;;;;;5402331;26;20461;-80
2024/04/18 00:30:32;;;;;;;5.57;2.47;;;7.40;99.90;;;;;;5409486;26;20004;-80
2024/04/18 00:32:58;;;;;;;2.40;2.13;;;7.00;99.90;;;;;;5408718;26;20014;-81
2024/04/18 00:35:23;;;;;;;3.83;2.20;;;7.30;99.90;;;;;;5405693;26;20015;-80
2024/04/18 00:37:49;;;;;;;4.57;1.77;;;7.30;99.90;;;;;;5407836;26;19996;-80
2024/04/18 00:40:14;;;;;;;5.20;1.95;;;7.20;99.90;;;;;;5405186;26;19996;-81
2024/04/18 00:42:40;;;;;;;11.73;2.28;;;7.20;99.90;;;;;;5406200;26;20004;-79
2024/04/18 00:45:06;;;;;;;3.72;2.55;;;7.10;99.90;;;;;;5407023;26;20085;-81
2024/04/18 00:47:32;;;;;;;2.78;1.98;;;7.30;99.90;;;;;;5414757;26;20000;-80
2024/04/18 00:49:58;;;;;;;4.80;2.35;;;7.30;99.90;;;;;;5407111;26;20463;-78
2024/04/18 00:52:24;;;;;;;4.10;2.20;;;7.30;99.90;;;;;;5406959;26;20008;-80
2024/04/18 00:54:50;;;;;;;4.68;2.55;;;7.00;99.90;;;;;;5410967;26;20342;-80
2024/04/18 00:57:16;;;;;;;4.55;2.65;;;6.90;99.90;;;;;;5407109;26;20011;-80
2024/04/18 00:59:44;;;;;;;3.58;2.22;;;7.20;99.90;;;;;;5413144;26;20008;-81
2024/04/18 01:02:10;;;;;;;5.18;1.92;;;6.80;99.90;;;;;;5411108;26;20055;-81
2024/04/18 01:04:37;;;;;;;5.10;2.92;;;6.90;99.90;;;;;;5412338;26;20014;-81
2024/04/18 01:07:03;;;;;;;3.55;2.63;;;6.90;99.90;;;;;;5408926;26;20007;-80
2024/04/18 01:09:29;;;;;;;5.30;2.50;;;6.90;99.90;;;;;;5412334;26;20022;-79
2024/04/18 01:11:54;;;;;;;3.75;2.05;;;6.70;99.90;;;;;;5414853;26;20003;-82
2024/04/18 01:14:20;;;;;;;11.93;2.42;;;6.90;99.90;;;;;;5411861;26;19999;-79
2024/04/18 01:16:46;;;;;;;4.65;2.30;;;6.80;99.90;;;;;;5413033;26;19996;-81
2024/04/18 01:19:19;;;;;;;3.30;2.17;;;6.80;99.90;;;;;;5412020;26;20006;-78
2024/04/18 01:21:46;;;;;;;2.80;2.08;;;6.90;99.90;;;;;;5403664;26;19996;-80
2024/04/18 01:24:12;;;;;;;4.70;2.30;;;6.90;99.90;;;;;;5415048;26;20457;-80
2024/04/18 01:26:38;;;;;;;8.77;2.88;;;6.90;99.90;;;;;;5415063;26;20023;-80
2024/04/18 01:29:03;;;;;;;5.72;2.53;;;7.00;99.90;;;;;;5406310;26;20353;-80
2024/04/18 01:31:29;;;;;;;5.05;2.22;;;7.00;99.90;;;;;;5438311;26;20011;-80
2024/04/18 01:33:57;;;;;;;4.60;2.67;;;7.10;99.90;;;;;;5411226;26;20011;-79
2024/04/18 01:36:23;;;;;;;4.45;2.50;;;7.20;99.90;;;;;;5412628;26;20027;-79
2024/04/18 01:38:49;;;;;;;5.85;2.33;;;7.00;99.90;;;;;;5411900;26;19995;-81
2024/04/18 01:41:16;;;;;;;5.47;2.28;;;7.10;99.90;;;;;;5407101;26;20857;-81
2024/04/18 01:43:41;;;;;;;7.45;2.72;;;7.00;99.90;;;;;;5407296;26;20057;-80
2024/04/18 01:46:07;;;;;;;7.18;2.83;;;7.00;99.90;;;;;;5412195;26;20003;-81
2024/04/18 01:48:33;;;;;;;4.70;2.65;;;7.00;99.90;;;;;;5408113;26;19999;-82
2024/04/18 01:50:58;;;;;;;5.88;2.50;;;7.00;99.90;;;;;;5411958;26;20098;-80
2024/04/18 01:53:24;;;;;;;4.75;2.50;;;6.90;99.90;;;;;;5413217;26;19991;-81
2024/04/18 01:55:49;;;;;;;4.32;2.83;;;6.90;99.90;;;;;;5413048;26;19995;-80
2024/04/18 01:58:15;;;;;;;5.20;3.13;;;7.00;99.90;;;;;;5412720;26;20072;-82
2024/04/18 02:00:44;;;;;;;4.45;2.88;;;7.00;99.90;;;;;;5399030;26;20014;-78
2024/04/18 02:03:09;;;;;;;11.82;2.92;;;7.00;99.90;;;;;;5409706;26;20011;-80
2024/04/18 02:05:35;;;;;;;4.97;2.80;;;7.00;99.90;;;;;;5413145;26;20084;-81
2024/04/18 02:08:01;;;;;;;4.97;2.78;;;7.10;99.90;;;;;;5442889;26;20013;-78
2024/04/18 02:10:27;;;;;;;6.30;2.97;;;7.00;99.90;;;;;;5411563;26;20018;-80
2024/04/18 02:12:56;;;;;;;7.15;2.78;;;6.80;99.90;;;;;;5414604;26;20010;-79
2024/04/18 02:15:23;;;;;;;4.22;2.72;;;6.90;99.90;;;;;;5404699;26;20457;-79
2024/04/18 02:17:48;;;;;;;4.45;2.95;;;7.10;99.90;;;;;;5409056;26;20000;-80
2024/04/18 02:20:14;;;;;;;4.00;2.60;;;7.00;99.90;;;;;;5412848;26;19996;-79
2024/04/18 02:22:40;;;;;;;6.30;2.53;;;7.10;99.90;;;;;;5412335;26;20000;-80
2024/04/18 02:25:11;;;;;;;6.57;3.25;;;7.20;99.90;;;;;;5406605;26;20011;-79
2024/04/18 02:27:37;;;;;;;6.65;3.35;;;7.20;99.90;;;;;;5404321;26;20081;-80
2024/04/18 02:30:04;;;;;;;3.90;2.70;;;7.10;99.90;;;;;;5409576;26;20028;-80
2024/04/18 02:32:30;;;;;;;4.70;2.83;;;7.40;99.90;;;;;;5411749;26;20457;-80
2024/04/18 02:34:56;;;;;;;7.45;2.40;;;7.50;99.90;;;;;;5405415;26;20010;-81
2024/04/18 02:37:22;;;;;;;5.85;2.80;;;7.50;99.90;;;;;;5410740;26;20077;-81
2024/04/18 02:39:48;;;;;;;5.68;3.47;;;7.30;99.90;;;;;;5406316;26;20007;-80
2024/04/18 02:42:16;;;;;;;7.60;4.25;;;6.90;99.90;;;;;;5413746;26;20006;-81
2024/04/18 02:44:41;;;;;;;7.32;2.85;;;6.90;99.90;;;;;;5438125;26;20492;-78
2024/04/18 02:47:08;;;;;;;4.20;2.80;;;6.90;99.90;;;;;;5406418;26;19995;-80
2024/04/18 02:49:33;;;;;;;6.30;2.67;;;7.00;99.90;;;;;;5414345;26;19999;-79
2024/04/18 02:51:59;;;;;;;5.50;2.97;;;7.20;99.90;;;;;;5411613;26;20014;-80
2024/04/18 02:54:24;;;;;;;7.60;3.15;;;7.00;99.90;;;;;;5411436;26;20007;-80
2024/04/18 02:56:50;;;;;;;5.57;2.65;;;6.90;99.90;;;;;;5408988;26;20447;-81
2024/04/18 02:59:16;;;;;;;4.20;3.00;;;6.90;99.90;;;;;;5409985;26;20451;-79
2024/04/18 03:01:41;;;;;;;5.82;3.38;;;7.30;99.90;;;;;;5409678;26;19996;-80
2024/04/18 03:04:07;;;;;;;8.68;3.05;;;7.10;99.90;;;;;;5401023;26;19996;-79
2024/04/18 03:06:33;;;;;;;4.88;3.17;;;7.10;99.90;;;;;;5409233;26;20015;-79
2024/04/18 03:08:58;;;;;;;4.28;2.90;;;7.20;99.90;;;;;;5414233;26;20005;-79
2024/04/18 03:11:24;;;;;;;7.00;3.40;;;7.40;99.90;;;;;;5414245;26;20015;-80
2024/04/18 03:13:49;;;;;;;6.40;2.97;;;7.10;99.90;;;;;;5418229;26;19995;-79
2024/04/18 03:16:15;;;;;;;4.55;3.05;;;7.10;99.90;;;;;;5407304;26;20008;-81
2024/04/18 03:18:44;;;;;;;5.57;2.80;;;7.30;99.90;;;;;;5412728;26;20007;-79
2024/04/18 03:21:10;;;;;;;5.45;3.10;;;7.00;99.90;;;;;;5437831;26;20917;-80
2024/04/18 03:23:37;;;;;;;6.18;3.00;;;7.10;99.90;;;;;;5440753;26;20015;-81
2024/04/18 03:26:03;;;;;;;4.15;2.83;;;6.90;99.90;;;;;;5407142;26;19995;-79
2024/04/18 03:28:28;;;;;;;4.28;3.05;;;7.10;99.90;;;;;;5409264;26;19999;-78
2024/04/18 03:30:54;;;;;;;5.95;2.95;;;7.10;99.90;;;;;;5409872;26;20036;-81
2024/04/18 03:33:19;;;;;;;4.35;2.70;;;7.00;99.90;;;;;;5413969;26;20436;-80
2024/04/18 03:35:45;;;;;;;5.90;3.22;;;6.90;99.90;;;;;;5413257;26;20480;-81
2024/04/18 03:38:10;;;;;;;4.43;2.95;;;7.10;99.90;;;;;;5406611;26;20000;-79
2024/04/18 03:40:38;;;;;;;8.85;3.33;;;7.00;99.90;;;;;;5413215;26;20004;-81
2024/04/18 03:43:07;;;;;;;6.70;3.63;;;7.10;99.90;;;;;;5441300;26;20110;-80
2024/04/18 03:45:32;;;;;;;7.72;2.85;;;7.20;99.90;;;;;;5406646;26;20014;-78
2024/04/18 03:47:58;;;;;;;6.72;3.20;;;6.80;99.90;;;;;;5411802;26;20452;-79
2024/04/18 03:50:23;;;;;;;6.40;3.25;;;7.10;99.90;;;;;;5410340;26;20474;-82
2024/04/18 03:52:49;;;;;;;9.23;2.78;;;6.90;99.90;;;;;;5412825;26;20107;-81
2024/04/18 03:55:14;;;;;;;7.70;3.40;;;6.80;99.90;;;;;;5411052;26;19995;-81
2024/04/18 03:57:40;;;;;;;4.47;2.78;;;6.90;99.90;;;;;;5410467;26;20069;-80
2024/04/18 04:00:06;;;;;;;3.88;2.78;;;7.10;99.90;;;;;;5409920;26;19996;-82
2024/04/18 04:02:33;;;;;;;6.63;3.42;;;7.20;99.90;;;;;;5407721;26;20461;-79
2024/04/18 04:04:59;;;;;;;5.45;2.83;;;7.10;99.90;;;;;;5410895;26;20006;-80
2024/04/18 04:07:24;;;;;;;5.40;2.80;;;7.20;99.90;;;;;;5403174;26;20000;-78
2024/04/18 04:09:50;;;;;;;8.63;3.30;;;7.10;99.90;;;;;;5408276;26;19996;-80
2024/04/18 04:12:16;;;;;;;6.40;2.90;;;7.10;99.90;;;;;;5413145;26;19991;-79
2024/04/18 04:14:41;;;;;;;9.80;2.65;;;7.20;99.90;;;;;;5411581;26;20667;-80
2024/04/18 04:17:08;;;;;;;6.57;2.63;;;7.20;99.90;;;;;;5411179;26;20053;-78
2024/04/18 04:19:34;;;;;;;6.90;3.67;;;7.20;99.90;;;;;;5412355;26;20011;-80
2024/04/18 04:21:59;;;;;;;9.65;3.22;;;7.00;99.90;;;;;;5413019;26;20011;-79
2024/04/18 04:24:25;;;;;;;4.72;3.28;;;7.10;99.90;;;;;;5410635;26;19995;-79
2024/04/18 04:26:51;;;;;;;5.82;3.35;;;7.10;99.90;;;;;;5412486;26;19999;-80
2024/04/18 04:29:17;;;;;;;4.90;3.28;;;7.20;99.90;;;;;;5412615;26;20438;-80
2024/04/18 04:31:42;;;;;;;6.95;3.10;;;7.10;99.90;;;;;;5409377;26;20011;-81
2024/04/18 04:34:10;;;;;;;7.25;3.70;;;7.30;99.90;;;;;;5404480;26;20425;-79
2024/04/18 04:36:35;;;;;;;6.07;3.65;;;7.10;99.90;;;;;;5411025;26;20028;-80
2024/04/18 04:39:01;;;;;;;6.70;3.65;;;7.20;99.90;;;;;;5411489;26;19995;-80
2024/04/18 04:41:26;;;;;;;5.97;3.40;;;7.20;99.90;;;;;;5407181;26;20664;-81
2024/04/18 04:43:52;;;;;;;5.15;3.05;;;7.20;99.90;;;;;;5414834;26;19999;-79
2024/04/18 04:46:18;;;;;;;6.82;3.80;;;7.10;99.90;;;;;;5413872;26;20009;-79
2024/04/18 04:48:44;;;;;;;4.78;3.28;;;7.20;99.90;;;;;;5416245;26;20007;-79
2024/04/18 04:51:10;;;;;;;7.53;3.53;;;7.10;99.90;;;;;;5415622;26;20349;-81
2024/04/18 04:53:35;;;;;;;5.75;3.42;;;7.00;99.90;;;;;;5415743;26;19995;-80
2024/04/18 04:56:01;;;;;;;6.35;3.70;;;7.10;99.90;;;;;;5416705;26;20003;-81
2024/04/18 04:58:27;;;;;;;5.13;3.03;;;7.00;99.90;;;;;;5407733;26;19997;-81
2024/04/18 05:00:58;;;;;;;6.50;3.95;;;7.20;99.90;;;;;;5403535;26;20015;-80
2024/04/18 05:03:24;;;;;;;5.80;3.70;;;7.30;99.90;;;;;;5403008;26;20011;-81
2024/04/18 05:05:49;;;;;;;5.78;3.22;;;7.10;99.90;;;;;;5444341;26;20000;-81
2024/04/18 05:08:17;;;;;;;7.00;3.83;;;7.10;99.90;;;;;;5416155;26;19995;-80
2024/04/18 05:10:43;;;;;;;6.32;3.53;;;7.10;99.90;;;;;;5413764;26;20011;-80
2024/04/18 05:13:11;;;;;;;8.23;3.67;;;7.00;99.90;;;;;;5414606;26;20003;-81
2024/04/18 05:15:37;;;;;;;6.32;3.65;;;7.10;99.90;;;;;;5415147;26;20011;-81
2024/04/18 05:18:04;;;;;;;6.05;3.50;;;7.30;99.90;;;;;;5414173;26;20031;-79
2024/04/18 05:20:30;;;;;;;6.22;3.65;;;7.20;99.90;;;;;;5416391;26;20039;-82
2024/04/18 05:22:55;;;;;;;6.35;3.65;;;7.20;99.90;;;;;;5418290;26;20069;-81
2024/04/18 05:25:22;;;;;;;6.90;3.50;;;7.20;99.90;;;;;;5413599;26;19995;-82
2024/04/18 05:28:03;;;;;;;9.18;3.75;;;7.20;99.90;;;;;;5410897;26;20003;-81
2024/04/18 05:33:12;;;;;;;5.68;3.15;;;7.30;99.90;;;;;;5410274;26;19931;-79
2024/04/18 05:35:38;;;;;;;7.88;4.32;;;7.30;99.90;;;;;;5411891;26;19996;-80
2024/04/18 05:38:03;;;;;;;6.65;3.70;;;7.30;99.90;;;;;;5412123;26;20006;-82
2024/04/18 05:40:29;;;;;;;5.25;3.80;;;7.40;99.90;;;;;;5415268;26;20000;-81
2024/04/18 05:42:54;;;;;;;10.35;3.97;;;7.40;99.90;;;;;;5414958;26;20043;-79
2024/04/18 05:45:20;;;;;;;4.15;3.30;;;7.30;99.90;;;;;;5442205;26;19991;-78
2024/04/18 05:47:46;;;;;;;6.80;3.88;;;7.30;99.90;;;;;;5416075;26;20018;-81
2024/04/18 05:50:11;;;;;;;4.97;3.30;;;7.30;99.90;;;;;;5414482;26;20476;-80
2024/04/18 05:52:37;;;;;;;10.10;4.43;;;7.40;99.90;;;;;;5412051;26;19995;-82
2024/04/18 05:55:03;;;;;;;5.82;3.75;;;7.20;99.90;;;;;;5409643;26;20526;-78
2024/04/18 05:57:28;;;;;;;7.15;3.90;;;7.40;99.90;;;;;;5414494;26;20067;-78
2024/04/18 05:59:54;;;;;;;7.22;4.22;;;7.60;99.90;;;;;;5406608;26;20039;-80
2024/04/18 06:02:20;;;;;;;8.05;3.97;;;7.30;99.90;;;;;;5412906;26;20015;-79
2024/04/18 06:04:46;;;;;;;5.85;3.78;;;7.30;99.90;;;;;;5442055;26;20408;-80
2024/04/18 06:07:11;;;;;;;5.45;3.60;;;7.20;99.90;;;;;;5409904;26;20007;-79
2024/04/18 06:09:37;;;;;;;6.60;3.97;;;7.40;99.90;;;;;;5412876;26;20010;-81
2024/04/18 06:12:03;;;;;;;10.05;4.03;;;7.60;99.90;;;;;;5412973;26;20000;-79
2024/04/18 06:14:28;;;;;;;7.13;3.90;;;7.70;99.90;;;;;;5414625;26;20028;-81
2024/04/18 06:16:54;;;;;;;8.40;3.72;;;7.40;99.90;;;;;;5411238;26;20003;-80
2024/04/18 06:19:19;;;;;;;5.18;3.45;;;7.50;99.90;;;;;;5412861;26;19992;-80
2024/04/18 06:21:45;;;;;;;7.55;3.78;;;7.60;99.90;;;;;;5417640;26;19996;-78
2024/04/18 06:24:10;;;;;;;6.93;3.63;;;7.80;99.90;;;;;;5416472;26;20003;-79
2024/04/18 06:26:36;;;;;;;6.82;3.90;;;7.80;99.90;;;;;;5419438;26;20069;-81
2024/04/18 06:29:01;;;;;;;10.63;3.97;;;7.50;99.90;;;;;;5413956;26;20076;-79
2024/04/18 06:31:27;;;;;;;7.70;4.15;;;7.60;99.90;;;;;;5405899;26;20704;-79
2024/04/18 06:33:52;;;;;;;7.47;4.07;;;7.70;99.90;;;;;;5413009;26;20020;-80
2024/04/18 06:36:18;;;;;;;5.68;3.80;;;7.80;99.90;;;;;;5410568;26;19995;-82
2024/04/18 06:38:44;;;;;;;7.72;4.35;;;7.80;99.90;;;;;;5412538;26;20182;-78
2024/04/18 06:41:09;;;;;;;5.05;3.58;;;7.60;99.90;;;;;;5418324;26;20765;-79
2024/04/18 06:43:35;;;;;;;6.97;3.53;;;7.70;99.90;;;;;;5411604;26;19995;-80
2024/04/18 06:46:01;;;;;;;13.65;3.72;;;7.80;99.90;;;;;;5414194;26;20006;-79
2024/04/18 06:48:26;;;;;;;6.38;4.00;;;8.00;99.90;;;;;;5413837;26;19992;-82
2024/04/18 06:50:52;;;;;;;5.93;4.47;;;8.00;99.90;;;;;;5411521;26;20414;-79
2024/04/18 06:53:17;;;;;;;7.57;3.65;;;7.90;99.90;;;;;;5412110;26;20010;-81
2024/04/18 06:55:43;;;;;;;7.63;4.57;;;7.80;99.90;;;;;;5408819;26;20004;-81
2024/04/18 06:58:09;;;;;;;7.13;4.28;;;7.60;99.90;;;;;;5410276;26;20018;-79
2024/04/18 07:00:37;;;;;;;9.88;4.60;;;7.60;99.90;;;;;;5409091;26;20678;-78
2024/04/18 07:03:06;;;;;;;6.53;4.05;;;7.60;99.90;;;;;;5412093;26;20003;-81
2024/04/18 07:05:31;;;;;;;7.20;4.68;;;7.60;99.90;;;;;;5406425;26;19999;-78
2024/04/18 07:07:57;;;;;;;9.55;3.97;;;7.60;99.90;;;;;;5435930;26;20022;-80
2024/04/18 07:10:23;;;;;;;5.13;3.78;;;7.90;99.90;;;;;;5410028;26;19995;-80
2024/04/18 07:12:48;;;;;;;5.72;3.80;;;8.00;99.90;;;;;;5411615;26;19999;-81
2024/04/18 07:15:14;;;;;;;4.85;3.67;;;8.10;99.90;;;;;;5412486;26;19995;-80
2024/04/18 07:17:41;;;;;;;6.13;3.85;;;8.20;99.90;;;;;;5400496;26;20011;-82
2024/04/18 07:20:07;;;;;;;8.95;3.65;;;8.00;99.90;;;;;;5416447;26;20000;-80
2024/04/18 07:22:32;;;;;;;8.23;3.85;;;8.20;99.90;;;;;;5402098;26;20014;-79
2024/04/18 07:24:58;;;;;;;6.35;4.00;;;8.20;99.90;;;;;;5406225;26;20050;-81
2024/04/18 07:27:24;;;;;;;8.73;4.30;;;8.30;99.90;;;;;;5402957;26;20001;-80
2024/04/18 07:29:49;;;;;;;7.85;3.90;;;8.30;99.90;;;;;;5407768;26;20460;-79
2024/04/18 07:32:15;;;;;;;5.82;4.47;;;8.30;99.90;;;;;;5405705;26;20000;-82
2024/04/18 07:34:40;;;;;;;6.28;4.13;;;8.40;99.90;;;;;;5408837;26;20435;-80
2024/04/18 07:37:06;;;;;;;8.27;4.60;;;8.30;99.90;;;;;;5402881;26;20047;-79
2024/04/18 07:39:31;;;;;;;8.30;4.75;;;8.30;99.90;;;;;;5411067;26;20003;-81
2024/04/18 07:41:57;;;;;;;4.85;3.65;;;8.30;99.90;;;;;;5400548;26;20073;-80
2024/04/18 07:44:23;;;;;;;5.80;4.03;;;8.40;99.90;;;;;;5404536;26;20007;-78
2024/04/18 07:46:49;;;;;;;7.30;3.75;;;8.30;99.90;;;;;;5408281;26;20003;-81
2024/04/18 07:49:15;;;;;;;7.82;3.83;;;8.40;99.90;;;;;;5410465;26;20076;-80
2024/04/18 07:51:42;;;;;;;6.90;3.47;;;8.80;99.90;;;;;;5412396;26;19991;-79
2024/04/18 07:54:08;;;;;;;6.18;3.65;;;8.90;99.90;;;;;;5404390;26;20004;-81
2024/04/18 07:56:33;;;;;;;5.10;3.42;;;8.90;99.90;;;;;;5404610;26;20122;-80
2024/04/18 07:58:59;;;;;;;5.82;3.42;;;9.20;99.90;;;;;;5439043;26;19995;-80
2024/04/18 08:01:24;;;;;;;8.68;3.78;;;9.30;99.90;;;;;;5440264;26;19995;-80
2024/04/18 08:03:50;;;;;;;7.40;4.07;;;9.40;99.90;;;;;;5442279;26;20003;-79
2024/04/18 08:06:15;;;;;;;10.15;3.88;;;9.60;99.90;;;;;;5412405;26;19995;-80
2024/04/18 08:08:41;;;;;;;7.80;4.18;;;9.80;99.90;;;;;;5439103;26;20014;-80
2024/04/18 08:11:09;;;;;;;5.03;3.53;;;9.80;99.90;;;;;;5408572;26;19995;-80
2024/04/18 08:13:36;;;;;;;5.03;2.85;;;9.90;99.90;;;;;;5407948;26;20489;-80
2024/04/18 08:16:02;;;;;;;4.97;3.05;;;10.00;99.90;;;;;;5409271;26;20047;-82
2024/04/18 08:18:28;;;;;;;5.95;3.22;;;9.90;99.90;;;;;;5412042;26;20065;-82
2024/04/18 08:20:56;;;;;;;4.53;2.88;;;9.90;99.90;;;;;;5410237;26;20047;-81
2024/04/18 08:23:22;;;;;;;4.45;2.80;;;10.10;99.90;;;;;;5400212;26;20000;-79
2024/04/18 08:25:47;;;;;;;7.38;3.00;;;10.20;99.90;;;;;;5411550;26;20499;-80
2024/04/18 08:28:14;;;;;;;4.53;3.17;;;10.00;99.90;;;;;;5407690;26;20038;-81
2024/04/18 08:30:39;;;;;;;6.15;3.75;;;10.20;99.90;;;;;;5401855;26;20101;-79
2024/04/18 08:33:05;;;;;;;4.18;3.03;;;10.30;99.90;;;;;;5437293;26;20469;-80
2024/04/18 08:35:31;;;;;;;6.53;4.10;;;10.40;99.90;;;;;;5411019;26;20018;-79
2024/04/18 08:37:56;;;;;;;5.75;3.88;;;10.30;99.90;;;;;;5412132;26;19999;-80
2024/04/18 08:40:22;;;;;;;6.75;3.72;;;9.90;99.90;;;;;;5404491;26;20019;-80
2024/04/18 08:42:47;;;;;;;8.02;3.95;;;10.10;99.90;;;;;;5399071;26;20004;-80
2024/04/18 08:45:13;;;;;;;6.13;4.07;;;10.20;99.90;;;;;;5408375;26;19995;-79
2024/04/18 08:47:40;;;;;;;5.68;3.78;;;9.90;99.90;;;;;;5411609;26;20006;-80
2024/04/18 08:50:07;;;;;;;6.32;3.78;;;9.70;99.90;;;;;;5409695;26;20008;-80
2024/04/18 08:52:36;;;;;;;5.63;3.20;;;10.00;99.90;;;;;;5410965;26;20018;-80
2024/04/18 08:55:01;;;;;;;8.38;3.17;;;9.90;99.90;;;;;;5402308;26;20011;-78
2024/04/18 08:57:34;;;;;;;8.98;3.20;;;9.80;99.90;;;;;;5434436;26;20000;-82
2024/04/18 09:00:01;;;;;;;3.35;2.47;;;9.60;99.90;;;;;;5413769;26;20022;-81
2024/04/18 09:02:27;;;;;;;4.13;2.63;;;9.60;99.90;;;;;;5438860;26;20816;-80
2024/04/18 09:04:53;;;;;;;3.75;2.30;;;9.90;99.90;;;;;;5411391;26;20011;-82
2024/04/18 09:07:18;;;;;;;4.78;2.88;;;9.80;99.90;;;;;;5414111;26;20003;-79
2024/04/18 09:09:44;;;;;;;2.60;2.10;;;9.60;99.90;;;;;;5405902;26;20004;-80
2024/04/18 09:12:10;;;;;;;5.90;2.83;;;9.60;99.90;;;;;;5400906;26;20032;-81
2024/04/18 09:14:36;;;;;;;3.72;2.72;;;9.40;99.90;;;;;;5406688;26;20001;-79
2024/04/18 09:17:14;;;;;;;4.35;2.60;;;9.60;99.90;;;;;;5412089;26;20007;-79
2024/04/18 09:19:40;;;;;;;3.00;2.45;;;9.60;99.90;;;;;;5411358;26;20068;-79
2024/04/18 09:22:05;;;;;;;5.82;2.92;;;10.10;99.90;;;;;;5405997;26;20501;-79
2024/04/18 09:24:31;;;;;;;4.95;2.92;;;10.60;99.90;;;;;;5440769;26;20006;-80
2024/04/18 09:26:58;;;;;;;5.57;2.70;;;10.80;99.90;;;;;;5410127;26;20028;-79
2024/04/18 09:29:23;;;;;;;6.40;3.17;;;10.80;99.90;;;;;;5437793;26;19999;-80
2024/04/18 09:31:51;;;;;;;5.53;3.22;;;10.80;99.90;;;;;;5410455;26;20000;-81
2024/04/18 09:34:18;;;;;;;5.00;2.85;;;11.20;99.90;;;;;;5411157;26;20010;-81
2024/04/18 09:36:45;;;;;;;3.95;3.00;;;10.80;99.90;;;;;;5407200;26;20011;-81
2024/04/18 09:39:17;;;;;;;3.60;2.90;;;10.30;99.90;;;;;;5405840;26;20004;-81
2024/04/18 09:41:46;;;;;;;5.30;3.55;;;10.20;99.90;;;;;;5409840;26;20014;-82
2024/04/18 09:44:19;;;;;;;9.90;3.05;;;10.20;99.90;;;;;;5412238;26;19995;-83
2024/04/18 09:46:46;;;;;;;4.88;2.92;;;10.20;99.90;;;;;;5410702;26;20007;-79
2024/04/18 09:49:12;;;;;;;4.32;2.97;;;10.00;99.90;;;;;;5407433;26;20019;-80
2024/04/18 09:51:39;;;;;;;4.18;2.90;;;9.90;99.90;;;;;;5409858;26;19996;-81
2024/04/18 09:54:05;;;;;;;3.97;3.20;;;10.00;99.90;;;;;;5412714;26;20014;-79
2024/04/18 09:56:33;;;;;;;5.47;3.10;;;10.50;99.90;;;;;;5441715;26;19999;-81
2024/04/18 09:59:00;;;;;;;4.43;3.13;;;11.30;99.90;;;;;;5404620;26;19996;-81
2024/04/18 10:01:26;;;;;;;7.00;2.85;;;11.60;99.90;;;;;;5411143;26;20007;-79
2024/04/18 10:03:51;;;;;;;3.83;3.00;;;11.70;99.90;;;;;;5404451;26;20023;-81
2024/04/18 10:06:20;;;;;;;3.58;2.63;;;11.80;99.90;;;;;;5407629;26;19999;-81
2024/04/18 10:08:52;;;;;;;3.88;2.90;;;12.00;99.90;;;;;;5407758;26;20023;-81
2024/04/18 10:11:23;;;;;;;4.45;3.22;;;12.00;99.90;;;;;;5407044;26;20065;-80
2024/04/18 10:13:49;;;;;;;4.15;2.83;;;11.50;99.90;;;;;;5401071;26;20037;-80
2024/04/18 10:16:15;;;;;;;4.22;2.42;;;11.70;99.90;;;;;;5410529;26;19995;-79
2024/04/18 10:18:44;;;;;;;4.85;2.97;;;12.00;99.90;;;;;;5410764;26;20015;-81
2024/04/18 10:21:21;;;;;;;3.75;2.33;;;12.30;99.90;;;;;;5403361;26;20015;-80
2024/04/18 10:23:47;;;;;;;4.53;3.22;;;12.00;99.90;;;;;;5410064;26;20340;-81
2024/04/18 10:26:17;;;;;;;4.00;2.75;;;11.50;99.90;;;;;;5402492;26;20065;-82
2024/04/18 10:28:44;;;;;;;3.42;2.35;;;11.20;99.90;;;;;;5435818;26;20031;-82
2024/04/18 10:31:10;;;;;;;7.38;2.20;;;10.70;99.90;;;;;;5408906;26;19996;-80
2024/04/18 10:33:37;;;;;;;2.80;2.47;;;10.40;99.90;;;;;;5405516;26;19999;-80
2024/04/18 10:36:06;;;;;;;3.50;2.22;;;10.70;99.90;;;;;;5401835;26;20000;-80
2024/04/18 10:38:33;;;;;;;3.47;2.10;;;12.00;99.90;;;;;;5407169;26;20068;-80
2024/04/18 10:41:05;;;;;;;11.63;2.45;;;12.70;99.90;;;;;;5409638;26;20011;-82
2024/04/18 10:43:35;;;;;;;2.45;1.75;;;13.00;99.90;;;;;;5405343;26;20351;-80
2024/04/18 10:46:01;;;;;;;2.58;1.80;;;13.20;99.90;;;;;;5414289;26;20077;-79
2024/04/18 10:48:27;;;;;;;7.38;2.00;;;13.30;99.90;;;;;;5414297;26;20461;-81
2024/04/18 10:50:53;;;;;;;2.38;1.88;;;13.20;99.90;;;;;;5442048;26;20004;-81
2024/04/18 10:53:19;;;;;;;2.97;2.15;;;12.60;99.90;;;;;;5405843;26;20040;-79
2024/04/18 10:55:45;;;;;;;3.85;2.42;;;11.80;99.90;;;;;;5413398;26;20048;-80
2024/04/18 10:58:11;;;;;;;5.68;3.60;;;11.30;99.90;;;;;;5414202;26;19998;-81
2024/04/18 11:00:43;;;;;;;8.30;2.95;;;11.10;99.90;;;;;;5438867;26;20010;-79
2024/04/18 11:03:09;;;;;;;7.95;3.28;;;10.80;99.90;;;;;;5401926;26;20007;-80
2024/04/18 11:05:40;;;;;;;5.55;3.00;;;10.90;99.90;;;;;;5405365;26;20093;-79
2024/04/18 11:08:06;;;;;;;;;;;10.80;99.90;;;;;;5405205;26;20470;-79
2024/04/18 11:10:33;;;;;;;4.18;2.63;;;10.60;99.90;;;;;;5405198;26;19934;-80
2024/04/18 11:13:00;;;;;;;5.13;3.38;;;10.60;99.90;;;;;;5406123;26;20010;-82
2024/04/18 11:15:27;;;;;;;7.30;3.10;;;10.70;99.90;;;;;;5417733;26;20014;-80
2024/04/18 11:17:53;;;;;;;4.28;2.97;;;10.70;99.90;;;;;;5409838;26;20013;-80
2024/04/18 11:20:19;;;;;;;6.03;3.35;;;11.50;99.90;;;;;;5410640;26;19996;-81
2024/04/18 11:22:45;;;;;;;5.55;2.50;;;12.50;99.90;;;;;;5412744;26;20000;-79
2024/04/18 11:25:10;;;;;;;4.22;2.28;;;12.40;99.90;;;;;;5412455;26;20345;-81
2024/04/18 11:27:39;;;;;;;4.10;2.15;;;13.00;99.90;;;;;;5410046;26;20033;-81
2024/04/18 11:30:06;;;;;;;5.20;2.70;;;12.80;99.90;;;;;;5399508;26;20072;-81
2024/04/18 11:32:32;;;;;;;4.55;2.30;;;13.10;99.90;;;;;;5403482;26;20003;-80
2024/04/18 11:35:01;;;;;;;3.17;2.30;;;12.80;99.90;;;;;;5402790;26;19996;-82
2024/04/18 11:37:36;;;;;;;2.35;2.00;;;12.60;99.90;;;;;;5404201;26;20004;-79
2024/04/18 11:40:05;;;;;;;4.80;2.78;;;12.80;99.90;;;;;;5401454;26;20003;-81
2024/04/18 11:42:31;;;;;;;2.60;2.30;;;13.20;99.90;;;;;;5402791;26;20008;-80
2024/04/18 11:44:56;;;;;;;6.18;2.58;;;13.30;99.90;;;;;;5408015;26;20092;-82
2024/04/18 11:47:22;;;;;;;4.30;2.40;;;12.40;99.90;;;;;;5409528;26;20002;-83
2024/04/18 11:49:47;;;;;;;2.47;1.90;;;11.60;99.90;;;;;;5405930;26;20003;-80
2024/04/18 11:52:13;;;;;;;3.20;1.90;;;11.20;99.90;;;;;;5407983;26;20010;-80
2024/04/18 11:54:38;;;;;;;3.72;1.70;;;11.10;99.90;;;;;;5408768;26;19996;-82
2024/04/18 11:57:04;;;;;;;3.70;2.03;;;11.00;99.90;;;;;;5400130;26;20421;-82
2024/04/18 11:59:29;;;;;;;2.50;1.70;;;11.00;99.90;;;;;;5398540;26;19996;-78
2024/04/18 12:01:55;;;;;;;4.53;2.13;;;11.00;99.90;;;;;;5402377;26;20041;-79
2024/04/18 12:04:21;;;;;;;4.80;2.35;;;11.30;99.90;;;;;;5402281;26;20003;-80
2024/04/18 12:06:46;;;;;;;3.47;2.25;;;11.40;99.90;;;;;;5416926;26;19996;-80
2024/04/18 12:09:12;;;;;;;3.65;2.45;;;11.50;99.90;;;;;;5407166;26;20000;-81
2024/04/18 12:11:37;;;;;;;7.90;2.95;;;11.40;99.90;;;;;;5404857;26;20072;-80
2024/04/18 12:14:03;;;;;;;5.20;2.55;;;11.30;99.90;;;;;;5401691;26;20068;-81
2024/04/18 12:16:30;;;;;;;4.03;1.90;;;11.30;99.90;;;;;;5396595;26;20007;-82
2024/04/18 12:18:55;;;;;;;1.70;1.30;;;11.20;99.90;;;;;;5411995;26;19999;-82
2024/04/18 12:21:21;;;;;;;1.08;0.90;;;11.10;99.90;;;;;;5414320;26;20014;-83
2024/04/18 12:23:46;;;;;;;1.83;0.88;;;11.10;99.90;;;;;;5399177;26;20462;-81
2024/04/18 12:26:12;;;;;;;1.02;0.80;;;11.10;99.90;;;;;;5399435;26;20342;-79
2024/04/18 12:28:38;;;;;;;2.00;0.85;;;11.10;99.90;;;;;;5400816;26;20010;-79
2024/04/18 12:31:03;;;;;;;1.05;0.77;;;11.10;99.90;;;;;;5396492;26;20008;-79
2024/04/18 12:33:29;;;;;;;2.08;1.10;;;11.20;99.90;;;;;;5402595;26;20436;-80
2024/04/18 12:35:55;;;;;;;1.88;1.45;;;11.60;99.90;;;;;;5400254;26;20420;-82
2024/04/18 12:38:20;;;;;;;5.55;2.80;;;12.00;99.90;;;;;;5407138;26;20004;-79
2024/04/18 12:40:46;;;;;;;2.92;2.63;;;11.90;99.90;;;;;;5400351;26;20013;-80
2024/04/18 12:43:16;;;;;;;3.88;2.53;;;11.90;99.90;;;;;;5402667;26;20459;-79
2024/04/18 12:45:42;;;;;;;4.25;2.30;;;11.80;99.90;;;;;;5402032;26;19992;-78
2024/04/18 12:48:07;;;;;;;3.63;2.22;;;11.40;99.90;;;;;;5404172;26;20000;-82
2024/04/18 12:50:33;;;;;;;3.08;1.80;;;11.10;99.90;;;;;;5404643;26;20357;-81